Time;durP1;ratioP1;P1;durP2;ratioP2;P2;SDS_P1;SDS_P2;PMS_P1;PMS_P2;Temp;Humidity;BMP_temperature;BMP_pressure;BME280_temperature;BME280_humidity;BME280_pressure;Samples;Min_cycle;Max_cycle;Signal;HPM_P1;HPM_P2
2022/11/22 00:00:37;;;;;;;1.85;1.75;;;16.50;68.60;;;;;;5009873;28;20403;-19
2022/11/22 00:03:02;;;;;;;2.03;1.88;;;16.50;68.60;;;;;;5008876;28;20128;-18
2022/11/22 00:05:28;;;;;;;2.42;1.90;;;16.50;68.60;;;;;;5011406;28;20050;-19
2022/11/22 00:07:53;;;;;;;2.17;1.98;;;16.50;68.60;;;;;;5002693;28;20054;-17
2022/11/22 00:10:19;;;;;;;2.10;1.90;;;16.50;68.60;;;;;;5007459;28;20049;-19
2022/11/22 00:12:45;;;;;;;1.75;1.63;;;16.50;68.60;;;;;;4998971;28;20044;-18
2022/11/22 00:15:10;;;;;;;2.00;1.80;;;16.50;68.60;;;;;;4994317;28;20458;-18
2022/11/22 00:17:36;;;;;;;1.70;1.60;;;16.40;68.50;;;;;;5001291;28;20037;-19
2022/11/22 00:20:03;;;;;;;1.98;1.77;;;16.50;68.70;;;;;;5009171;28;20049;-18
2022/11/22 00:22:30;;;;;;;1.90;1.80;;;16.40;68.60;;;;;;5005285;28;20046;-18
2022/11/22 00:24:55;;;;;;;1.80;1.70;;;16.50;68.70;;;;;;5008641;28;20038;-17
2022/11/22 00:27:21;;;;;;;1.67;1.58;;;16.40;68.60;;;;;;5005818;28;20034;-19
2022/11/22 00:29:46;;;;;;;2.05;1.90;;;16.50;68.70;;;;;;4993419;28;20483;-19
2022/11/22 00:32:12;;;;;;;1.90;1.70;;;16.40;68.60;;;;;;4993432;28;20034;-18
2022/11/22 00:34:38;;;;;;;2.00;1.80;;;16.40;68.60;;;;;;4994803;28;20042;-18
2022/11/22 00:37:03;;;;;;;1.60;1.50;;;16.40;68.70;;;;;;4992715;28;20419;-19
2022/11/22 00:39:29;;;;;;;1.80;1.70;;;16.40;68.70;;;;;;4992734;28;20085;-18
2022/11/22 00:41:54;;;;;;;1.60;1.48;;;16.50;68.80;;;;;;4992264;28;20189;-18
2022/11/22 00:44:20;;;;;;;1.70;1.60;;;16.50;68.70;;;;;;4992492;28;20045;-18
2022/11/22 00:46:45;;;;;;;2.30;1.65;;;16.40;69.50;;;;;;4990631;28;20125;-18
2022/11/22 00:49:11;;;;;;;1.52;1.42;;;16.40;68.70;;;;;;4992884;28;20030;-19
2022/11/22 00:51:36;;;;;;;1.40;1.30;;;16.40;68.60;;;;;;4991960;28;20079;-19
2022/11/22 00:54:02;;;;;;;1.45;1.35;;;16.50;68.70;;;;;;4992523;28;20049;-18
2022/11/22 00:56:28;;;;;;;1.45;1.33;;;16.40;68.60;;;;;;4998576;28;20593;-19
2022/11/22 00:58:53;;;;;;;1.52;1.42;;;16.40;68.70;;;;;;4999078;28;20041;-19
2022/11/22 01:01:19;;;;;;;1.60;1.50;;;16.40;68.70;;;;;;4992521;28;20046;-18
2022/11/22 01:03:45;;;;;;;1.60;1.50;;;16.40;69.40;;;;;;5008753;28;20415;-18
2022/11/22 01:06:10;;;;;;;1.90;1.40;;;16.40;68.70;;;;;;5009710;28;20057;-18
2022/11/22 01:08:36;;;;;;;1.25;1.10;;;16.40;68.80;;;;;;5007267;28;20046;-19
2022/11/22 01:11:01;;;;;;;1.60;1.40;;;16.40;68.70;;;;;;5005294;28;20039;-18
2022/11/22 01:13:27;;;;;;;1.55;1.45;;;16.40;68.70;;;;;;4994397;28;20117;-19
2022/11/22 01:15:57;;;;;;;1.23;1.13;;;16.40;68.80;;;;;;4994468;28;20042;-19
2022/11/22 01:18:23;;;;;;;1.67;1.58;;;16.40;68.80;;;;;;5013415;28;20041;-18
2022/11/22 01:20:48;;;;;;;1.30;1.20;;;16.40;68.70;;;;;;5007550;28;20099;-20
2022/11/22 01:23:14;;;;;;;1.33;1.23;;;16.40;69.60;;;;;;5009881;28;20049;-18
2022/11/22 01:25:42;;;;;;;1.20;1.10;;;16.40;68.80;;;;;;4995076;28;20415;-19
2022/11/22 01:28:08;;;;;;;1.55;1.45;;;16.40;68.80;;;;;;4991668;28;20042;-18
2022/11/22 01:30:33;;;;;;;1.95;1.40;;;16.40;68.80;;;;;;4994486;28;20154;-18
2022/11/22 01:32:59;;;;;;;1.60;1.50;;;16.40;68.80;;;;;;4991375;28;20137;-19
2022/11/22 01:35:25;;;;;;;1.27;1.17;;;16.40;68.80;;;;;;5004234;28;20516;-19
2022/11/22 01:37:50;;;;;;;2.10;1.40;;;16.40;68.70;;;;;;5009211;28;20034;-23
2022/11/22 01:40:16;;;;;;;1.35;1.25;;;16.40;68.80;;;;;;5003953;28;20091;-19
2022/11/22 01:42:55;;;;;;;1.50;1.40;;;16.40;68.90;;;;;;5007147;28;20396;-19
2022/11/22 01:45:30;;;;;;;1.70;1.38;;;16.40;68.80;;;;;;5010414;28;20053;-18
2022/11/22 01:48:11;;;;;;;1.30;1.20;;;16.40;68.80;;;;;;5011806;28;20042;-18
2022/11/22 01:50:38;;;;;;;1.40;1.30;;;16.40;68.70;;;;;;5014665;28;20521;-18
2022/11/22 01:53:09;;;;;;;1.27;1.17;;;16.40;68.80;;;;;;5012333;28;20096;-18
2022/11/22 01:55:35;;;;;;;1.00;1.00;;;16.40;68.70;;;;;;5015798;28;20515;-18
2022/11/22 01:58:00;;;;;;;1.40;1.20;;;16.40;68.80;;;;;;5010432;28;20060;-18
2022/11/22 02:00:26;;;;;;;1.73;1.25;;;16.40;68.80;;;;;;5010856;28;20047;-19
2022/11/22 02:02:56;;;;;;;1.02;1.00;;;16.40;68.80;;;;;;4997207;28;20031;-18
2022/11/22 02:05:25;;;;;;;1.20;1.10;;;16.40;68.90;;;;;;5010193;28;21544;-19
2022/11/22 02:07:55;;;;;;;1.10;1.00;;;16.40;68.90;;;;;;4997641;28;20050;-19
2022/11/22 02:10:22;;;;;;;0.85;0.82;;;16.40;68.90;;;;;;4998897;28;20081;-18
2022/11/22 02:12:48;;;;;;;2.30;1.13;;;16.40;68.80;;;;;;5021704;28;20495;-18
2022/11/22 02:15:13;;;;;;;1.15;1.02;;;16.40;69.00;;;;;;5004785;28;20200;-19
2022/11/22 02:17:39;;;;;;;1.27;1.10;;;16.40;69.10;;;;;;5016125;28;20398;-18
2022/11/22 02:20:05;;;;;;;1.10;1.00;;;16.40;69.00;;;;;;5004903;28;20117;-18
2022/11/22 02:22:51;;;;;;;0.93;0.90;;;16.40;69.10;;;;;;5001635;28;20054;-19
2022/11/22 02:25:29;;;;;;;0.90;0.90;;;16.40;69.10;;;;;;4998365;28;20113;-19
2022/11/22 02:27:55;;;;;;;1.00;0.98;;;16.40;69.20;;;;;;5027946;28;20185;-21
2022/11/22 02:30:20;;;;;;;1.10;1.00;;;16.40;69.10;;;;;;5009393;28;20120;-18
2022/11/22 02:32:46;;;;;;;1.10;1.02;;;16.40;69.00;;;;;;5007065;28;20569;-18
2022/11/22 02:35:18;;;;;;;1.27;1.17;;;16.40;69.00;;;;;;5012142;28;20520;-18
2022/11/22 02:37:44;;;;;;;1.30;1.20;;;16.40;69.00;;;;;;5008546;28;20576;-18
2022/11/22 02:40:12;;;;;;;0.88;0.88;;;16.40;69.10;;;;;;5014994;28;20046;-18
2022/11/22 02:42:37;;;;;;;0.93;0.93;;;16.40;69.20;;;;;;5015504;28;20057;-23
2022/11/22 02:45:03;;;;;;;0.85;0.85;;;16.40;69.20;;;;;;5000784;28;20045;-19
2022/11/22 02:47:29;;;;;;;1.13;0.80;;;16.30;69.10;;;;;;5007668;28;20044;-19
2022/11/22 02:49:54;;;;;;;0.70;0.70;;;16.40;69.20;;;;;;4994081;28;20039;-19
2022/11/22 02:52:20;;;;;;;1.10;1.00;;;16.30;69.30;;;;;;5013159;28;20034;-18
2022/11/22 02:54:45;;;;;;;1.10;1.00;;;16.40;69.20;;;;;;5014931;28;20064;-18
2022/11/22 02:57:11;;;;;;;1.42;1.05;;;16.40;69.20;;;;;;5016196;28;20037;-18
2022/11/22 02:59:37;;;;;;;0.80;0.80;;;16.30;69.20;;;;;;5012380;28;20111;-18
2022/11/22 03:02:02;;;;;;;1.15;1.08;;;16.30;69.30;;;;;;5011317;28;20416;-20
2022/11/22 03:04:28;;;;;;;0.70;0.70;;;16.30;69.30;;;;;;5005219;28;20196;-25
2022/11/22 03:06:55;;;;;;;0.77;0.77;;;16.30;69.20;;;;;;5005149;28;20505;-18
2022/11/22 03:09:21;;;;;;;1.00;0.90;;;16.30;69.20;;;;;;5014341;28;20137;-18
2022/11/22 03:11:46;;;;;;;0.82;0.73;;;16.40;69.20;;;;;;5003561;28;20045;-19
2022/11/22 03:14:14;;;;;;;1.08;0.80;;;16.30;69.10;;;;;;5015016;28;20057;-20
2022/11/22 03:16:40;;;;;;;0.80;0.80;;;16.30;69.10;;;;;;5014399;28;20121;-18
2022/11/22 03:19:06;;;;;;;1.25;1.15;;;16.40;69.10;;;;;;5008426;28;20041;-19
2022/11/22 03:21:32;;;;;;;1.00;0.90;;;16.30;69.20;;;;;;4994499;28;20034;-18
2022/11/22 03:23:57;;;;;;;0.93;0.82;;;16.40;69.10;;;;;;4994039;28;20506;-19
2022/11/22 03:26:23;;;;;;;1.08;0.90;;;16.40;69.10;;;;;;5012480;28;20090;-18
2022/11/22 03:28:48;;;;;;;1.00;0.90;;;16.30;69.00;;;;;;5008866;28;20045;-19
2022/11/22 03:31:14;;;;;;;0.70;0.60;;;16.40;69.10;;;;;;5013171;28;20430;-19
2022/11/22 03:33:39;;;;;;;0.90;0.70;;;16.30;69.00;;;;;;5010240;28;20065;-18
2022/11/22 03:36:05;;;;;;;0.95;0.93;;;16.40;68.90;;;;;;5000457;28;20046;-19
2022/11/22 03:38:30;;;;;;;0.68;0.68;;;16.40;68.70;;;;;;5014747;28;20472;-18
2022/11/22 03:40:56;;;;;;;0.70;0.68;;;16.40;68.70;;;;;;5011690;28;20042;-19
2022/11/22 03:43:22;;;;;;;0.70;0.70;;;16.40;68.90;;;;;;5008670;28;20049;-19
2022/11/22 03:45:47;;;;;;;1.00;1.00;;;16.40;68.90;;;;;;5007831;28;20427;-18
2022/11/22 03:48:13;;;;;;;0.80;0.80;;;16.40;69.60;;;;;;5006079;28;20042;-19
2022/11/22 03:50:39;;;;;;;0.70;0.70;;;16.40;68.80;;;;;;4997293;28;20039;-18
2022/11/22 03:53:04;;;;;;;0.50;0.50;;;16.50;68.60;;;;;;4992366;28;20042;-17
2022/11/22 03:55:30;;;;;;;0.73;0.73;;;16.40;69.40;;;;;;4994461;28;20420;-18
2022/11/22 03:57:56;;;;;;;0.70;0.70;;;16.40;68.40;;;;;;5009776;28;20104;-18
2022/11/22 04:00:22;;;;;;;1.13;0.80;;;16.40;68.70;;;;;;5005101;28;20040;-18
2022/11/22 04:02:48;;;;;;;0.60;0.45;;;16.40;68.70;;;;;;5012296;28;20494;-18
2022/11/22 04:05:13;;;;;;;0.63;0.63;;;16.40;68.70;;;;;;4995081;28;20101;-18
2022/11/22 04:07:39;;;;;;;0.60;0.60;;;16.40;68.50;;;;;;4993566;28;20046;-18
2022/11/22 04:10:05;;;;;;;0.73;0.70;;;16.50;68.60;;;;;;4992901;28;20054;-18
2022/11/22 04:12:31;;;;;;;0.85;0.80;;;16.50;68.50;;;;;;5007929;28;20481;-18
2022/11/22 04:15:05;;;;;;;0.60;0.60;;;16.50;68.40;;;;;;5018962;28;20049;-19
2022/11/22 04:17:43;;;;;;;0.55;0.55;;;16.40;68.50;;;;;;5009753;28;20434;-18
2022/11/22 04:23:16;;;;;;;0.85;0.70;;;16.40;68.50;;;;;;5008860;28;20580;-18
2022/11/22 04:25:47;;;;;;;0.77;0.77;;;16.40;68.60;;;;;;5003682;28;20132;-18
2022/11/22 04:28:13;;;;;;;0.57;0.57;;;16.50;68.60;;;;;;5002259;28;20429;-18
2022/11/22 04:33:37;;;;;;;0.60;0.60;;;16.40;68.40;;;;;;4974820;28;20085;-18
2022/11/22 04:36:03;;;;;;;0.80;0.80;;;16.40;68.60;;;;;;4972686;28;20043;-18
2022/11/22 04:38:28;;;;;;;1.30;0.80;;;16.40;68.70;;;;;;4970425;28;20619;-19
2022/11/22 04:40:54;;;;;;;0.50;0.50;;;16.40;68.60;;;;;;4971759;28;20050;-18
2022/11/22 04:46:10;;;;;;;0.60;0.50;;;16.40;68.50;;;;;;4974851;28;20486;-20
2022/11/22 04:48:36;;;;;;;0.82;0.50;;;16.40;68.40;;;;;;4969449;28;20051;-19
2022/11/22 04:53:46;;;;;;;0.63;0.50;;;16.40;68.60;;;;;;4969855;28;20142;-18
2022/11/22 04:56:12;;;;;;;0.75;0.52;;;16.30;68.60;;;;;;4976714;28;20133;-18
2022/11/22 04:58:38;;;;;;;0.60;0.50;;;16.30;69.30;;;;;;4968800;28;20586;-19
2022/11/22 05:01:03;;;;;;;0.60;0.60;;;16.30;68.70;;;;;;4972039;28;20038;-20
2022/11/22 05:03:29;;;;;;;0.55;0.55;;;16.40;68.30;;;;;;4972328;28;20055;-18
2022/11/22 05:05:54;;;;;;;0.47;0.47;;;16.40;68.40;;;;;;4974013;28;20145;-18
2022/11/22 05:08:20;;;;;;;0.50;0.50;;;16.40;68.30;;;;;;4975855;28;20050;-19
2022/11/22 05:10:56;;;;;;;0.55;0.50;;;16.40;68.50;;;;;;4999786;28;20044;-18
2022/11/22 05:13:30;;;;;;;0.47;0.47;;;16.30;68.60;;;;;;4999058;28;20080;-18
2022/11/22 05:15:56;;;;;;;0.60;0.47;;;16.40;68.30;;;;;;4992421;28;20053;-18
2022/11/22 05:18:22;;;;;;;0.68;0.50;;;16.40;68.40;;;;;;4995707;28;20120;-18
2022/11/22 05:20:47;;;;;;;0.45;0.43;;;16.40;68.40;;;;;;4992184;28;20046;-18
2022/11/22 05:25:58;;;;;;;0.52;0.52;;;16.40;68.20;;;;;;4992700;28;20049;-19
2022/11/22 05:28:26;;;;;;;0.40;0.40;;;16.30;69.30;;;;;;4991054;28;20050;-18
2022/11/22 05:30:51;;;;;;;0.50;0.50;;;16.30;68.70;;;;;;4991475;28;20153;-18
2022/11/22 05:33:17;;;;;;;0.55;0.38;;;16.20;68.70;;;;;;4989781;28;20089;-18
2022/11/22 05:35:43;;;;;;;0.52;0.47;;;16.30;68.70;;;;;;4989355;28;20038;-18
2022/11/22 05:38:08;;;;;;;0.47;0.40;;;16.40;68.20;;;;;;4993081;28;20169;-18
2022/11/22 05:40:34;;;;;;;0.50;0.43;;;16.60;67.60;;;;;;4991577;28;20051;-27
2022/11/22 05:42:59;;;;;;;0.40;0.40;;;16.40;68.00;;;;;;4989950;28;20113;-18
2022/11/22 05:45:25;;;;;;;0.50;0.50;;;16.40;68.30;;;;;;4991214;28;20034;-19
2022/11/22 05:47:50;;;;;;;0.50;0.50;;;16.40;68.20;;;;;;4988310;28;20039;-18
2022/11/22 05:50:16;;;;;;;0.65;0.63;;;16.40;68.40;;;;;;4990131;28;20050;-18
2022/11/22 05:52:41;;;;;;;0.85;0.40;;;16.40;68.30;;;;;;4992817;28;20095;-18
2022/11/22 05:55:07;;;;;;;0.68;0.50;;;16.40;68.20;;;;;;4990684;28;20042;-18
2022/11/22 05:57:33;;;;;;;0.40;0.40;;;16.40;68.40;;;;;;4991373;28;20062;-18
2022/11/22 05:59:58;;;;;;;0.40;0.30;;;16.30;68.20;;;;;;4986769;28;20431;-18
2022/11/22 06:02:24;;;;;;;0.50;0.50;;;16.20;68.50;;;;;;4989482;28;20044;-18
2022/11/22 06:04:50;;;;;;;0.40;0.40;;;16.20;68.60;;;;;;4992116;28;20070;-19
2022/11/22 06:07:15;;;;;;;0.40;0.40;;;16.30;68.50;;;;;;4988137;28;20042;-19
2022/11/22 06:09:41;;;;;;;0.70;0.50;;;16.30;68.50;;;;;;4989178;28;20050;-24
2022/11/22 06:12:07;;;;;;;0.85;0.50;;;16.40;69.20;;;;;;4994323;28;20049;-19
2022/11/22 06:14:32;;;;;;;0.43;0.43;;;16.40;68.20;;;;;;4989390;28;20065;-18
2022/11/22 06:16:58;;;;;;;0.30;0.30;;;16.40;68.20;;;;;;4997598;28;20037;-19
2022/11/22 06:19:23;;;;;;;0.32;0.32;;;16.40;68.20;;;;;;4988951;28;20097;-18
2022/11/22 06:21:49;;;;;;;0.32;0.30;;;16.40;68.00;;;;;;4991270;28;20042;-18
2022/11/22 06:24:14;;;;;;;0.30;0.30;;;16.40;68.10;;;;;;4990281;28;20054;-18
2022/11/22 06:26:40;;;;;;;0.43;0.43;;;16.40;69.00;;;;;;4994474;28;20078;-18
2022/11/22 06:29:06;;;;;;;0.52;0.40;;;16.30;68.10;;;;;;4995887;28;20038;-19
2022/11/22 06:31:31;;;;;;;0.40;0.40;;;16.30;68.20;;;;;;4995599;28;20402;-19
2022/11/22 06:33:58;;;;;;;0.88;0.40;;;16.40;68.00;;;;;;4995018;28;20526;-19
2022/11/22 06:36:26;;;;;;;0.35;0.35;;;16.30;68.20;;;;;;4991468;28;20463;-18
2022/11/22 06:38:52;;;;;;;0.50;0.32;;;16.30;68.30;;;;;;4993745;28;20202;-18
2022/11/22 06:41:19;;;;;;;0.73;0.40;;;16.40;68.20;;;;;;4994455;28;20469;-18
2022/11/22 06:43:45;;;;;;;0.30;0.30;;;16.30;68.20;;;;;;4994811;28;20035;-20
2022/11/22 06:46:11;;;;;;;0.25;0.25;;;16.40;67.90;;;;;;4996009;28;20054;-21
2022/11/22 06:48:37;;;;;;;0.40;0.40;;;16.40;68.00;;;;;;4997360;28;20050;-22
2022/11/22 06:51:06;;;;;;;0.60;0.40;;;16.40;67.80;;;;;;4993489;28;20038;-22
2022/11/22 06:53:32;;;;;;;0.30;0.30;;;16.30;67.90;;;;;;5001334;28;20042;-25
2022/11/22 06:56:06;;;;;;;0.50;0.30;;;16.20;68.20;;;;;;4993995;28;20049;-22
2022/11/22 06:58:32;;;;;;;0.55;0.30;;;16.30;68.30;;;;;;4993889;28;20093;-22
2022/11/22 07:01:11;;;;;;;0.47;0.40;;;16.20;68.40;;;;;;4639541;28;9999919;-22
2022/11/22 07:03:37;;;;;;;0.93;0.52;;;16.20;68.50;;;;;;5005423;28;20053;-23
2022/11/22 07:06:04;;;;;;;0.40;0.40;;;16.20;68.50;;;;;;4992738;28;20046;-22
2022/11/22 07:08:29;;;;;;;0.38;0.30;;;16.40;67.80;;;;;;4987020;28;20057;-22
2022/11/22 07:10:57;;;;;;;0.47;0.40;;;16.30;68.20;;;;;;4989682;28;20077;-24
2022/11/22 07:13:23;;;;;;;0.30;0.30;;;16.30;68.10;;;;;;4980626;28;20045;-24
2022/11/22 07:15:55;;;;;;;0.45;0.40;;;16.30;68.30;;;;;;4984673;28;20037;-27
2022/11/22 07:18:21;;;;;;;0.47;0.38;;;16.40;68.00;;;;;;4992718;28;20050;-31
2022/11/22 07:20:47;;;;;;;1.40;0.43;;;16.40;68.00;;;;;;4987689;28;20049;-24
2022/11/22 07:23:14;;;;;;;0.30;0.30;;;16.50;67.70;;;;;;4631466;28;9999947;-23
2022/11/22 07:25:45;;;;;;;0.57;0.40;;;16.50;67.90;;;;;;4982746;28;20081;-24
2022/11/22 07:28:12;;;;;;;0.88;0.38;;;16.40;68.30;;;;;;4978153;28;20375;-25
2022/11/22 07:30:38;;;;;;;0.40;0.40;;;16.40;68.50;;;;;;4984545;28;20062;-23
2022/11/22 07:33:03;;;;;;;0.30;0.25;;;16.40;68.40;;;;;;4986842;28;20129;-23
2022/11/22 07:35:29;;;;;;;0.35;0.30;;;16.30;68.40;;;;;;4977555;28;20809;-23
2022/11/22 07:37:54;;;;;;;0.63;0.40;;;16.30;68.60;;;;;;5010659;28;20145;-23
2022/11/22 07:40:20;;;;;;;0.82;0.30;;;16.30;68.70;;;;;;4980781;28;20070;-25
2022/11/22 07:42:45;;;;;;;0.57;0.43;;;16.40;68.50;;;;;;4975317;28;20547;-22
2022/11/22 07:45:11;;;;;;;0.40;0.40;;;16.30;68.60;;;;;;4982307;28;20129;-22
2022/11/22 07:47:36;;;;;;;0.40;0.40;;;16.40;68.70;;;;;;4984496;28;20089;-23
2022/11/22 07:50:02;;;;;;;1.65;0.35;;;16.30;68.70;;;;;;4983987;28;20045;-25
2022/11/22 07:52:28;;;;;;;2.15;0.40;;;16.30;69.60;;;;;;4989217;28;20041;-21
2022/11/22 07:54:54;;;;;;;1.88;0.35;;;16.30;69.00;;;;;;4991718;28;20050;-22
2022/11/22 07:57:19;;;;;;;1.15;0.43;;;16.30;68.80;;;;;;4986887;28;20412;-22
2022/11/22 07:59:45;;;;;;;0.63;0.32;;;16.30;68.90;;;;;;4990003;28;20046;-23
2022/11/22 08:02:11;;;;;;;0.38;0.30;;;16.30;69.00;;;;;;4994702;28;20121;-21
2022/11/22 08:04:36;;;;;;;0.35;0.30;;;16.30;68.90;;;;;;4995279;28;20065;-23
2022/11/22 08:07:02;;;;;;;0.80;0.40;;;16.30;68.80;;;;;;4993052;28;20031;-21
2022/11/22 08:09:27;;;;;;;0.60;0.40;;;16.40;68.50;;;;;;4993797;28;20054;-26
2022/11/22 08:11:53;;;;;;;0.77;0.30;;;16.50;68.20;;;;;;4993448;28;20527;-23
2022/11/22 08:14:19;;;;;;;0.63;0.40;;;16.50;69.00;;;;;;4994069;28;20078;-24
2022/11/22 08:16:44;;;;;;;0.50;0.50;;;16.40;68.30;;;;;;4996829;28;20049;-22
2022/11/22 08:19:14;;;;;;;0.77;0.50;;;16.40;68.40;;;;;;5009280;28;20036;-23
2022/11/22 08:21:40;;;;;;;0.90;0.50;;;16.40;68.10;;;;;;5004246;28;20048;-22
2022/11/22 08:24:06;;;;;;;1.27;0.38;;;16.40;69.00;;;;;;4995326;28;20046;-21
2022/11/22 08:26:31;;;;;;;0.30;0.30;;;16.30;68.50;;;;;;4990878;28;20081;-22
2022/11/22 08:28:57;;;;;;;0.47;0.40;;;16.30;68.70;;;;;;4995277;28;20038;-23
2022/11/22 08:31:22;;;;;;;0.40;0.40;;;16.30;68.70;;;;;;4992884;28;20046;-23
2022/11/22 08:33:51;;;;;;;0.50;0.50;;;16.30;68.70;;;;;;4994459;28;20156;-22
2022/11/22 08:36:17;;;;;;;0.40;0.38;;;16.30;68.30;;;;;;5024564;28;20574;-24
2022/11/22 08:38:42;;;;;;;0.40;0.40;;;16.20;68.50;;;;;;4995032;28;20050;-22
2022/11/22 08:41:08;;;;;;;0.63;0.63;;;16.20;68.70;;;;;;4996472;28;20439;-21
2022/11/22 08:43:34;;;;;;;0.60;0.40;;;16.30;68.40;;;;;;4995139;28;20029;-22
2022/11/22 08:46:00;;;;;;;0.43;0.35;;;16.30;68.50;;;;;;4999536;28;20058;-28
2022/11/22 08:48:28;;;;;;;0.85;0.45;;;16.30;68.40;;;;;;4995818;28;20108;-23
2022/11/22 08:50:55;;;;;;;0.30;0.30;;;16.20;69.40;;;;;;4994305;28;20049;-23
2022/11/22 08:53:21;;;;;;;0.30;0.30;;;16.30;68.50;;;;;;4994592;28;20073;-23
2022/11/22 08:55:47;;;;;;;0.40;0.40;;;16.30;68.40;;;;;;5006070;28;20096;-24
2022/11/22 08:58:13;;;;;;;0.73;0.30;;;16.20;68.60;;;;;;5006618;28;20050;-26
2022/11/22 09:00:38;;;;;;;0.50;0.40;;;16.30;68.10;;;;;;5009381;28;20116;-21
2022/11/22 09:03:04;;;;;;;0.38;0.38;;;16.30;68.10;;;;;;5011184;28;20042;-26
2022/11/22 09:05:30;;;;;;;0.40;0.25;;;16.20;68.20;;;;;;5012184;28;20502;-25
2022/11/22 09:07:56;;;;;;;0.80;0.43;;;16.30;68.40;;;;;;4995933;28;20058;-22
2022/11/22 09:10:22;;;;;;;0.75;0.30;;;16.40;67.80;;;;;;4993405;28;20496;-23
2022/11/22 09:12:47;;;;;;;0.35;0.20;;;16.40;67.60;;;;;;4992682;28;20052;-23
2022/11/22 09:15:13;;;;;;;0.60;0.40;;;16.40;68.00;;;;;;4996779;28;20107;-22
2022/11/22 09:17:38;;;;;;;0.35;0.20;;;16.40;68.00;;;;;;4991448;28;20121;-23
2022/11/22 09:20:05;;;;;;;0.50;0.20;;;16.30;68.20;;;;;;4996898;28;20137;-23
2022/11/22 09:22:31;;;;;;;0.45;0.20;;;16.40;68.30;;;;;;5004704;28;20037;-22
2022/11/22 09:24:56;;;;;;;0.60;0.30;;;16.30;68.40;;;;;;5008759;28;20045;-26
2022/11/22 09:27:22;;;;;;;0.22;0.22;;;16.30;68.40;;;;;;4995197;28;20038;-26
2022/11/22 09:29:48;;;;;;;0.28;0.20;;;16.20;68.60;;;;;;4991305;28;20053;-24
2022/11/22 09:32:13;;;;;;;0.75;0.45;;;16.40;68.40;;;;;;4993620;28;20037;-22
2022/11/22 09:34:39;;;;;;;0.80;0.50;;;16.30;68.30;;;;;;4994241;28;20037;-22
2022/11/22 09:37:04;;;;;;;0.55;0.30;;;16.40;68.20;;;;;;5004578;28;20052;-23
2022/11/22 09:39:30;;;;;;;0.13;0.10;;;16.40;68.10;;;;;;5008927;28;20522;-24
2022/11/22 09:42:20;;;;;;;0.40;0.20;;;16.40;68.30;;;;;;5004239;28;20050;-31
2022/11/22 09:45:14;;;;;;;0.28;0.22;;;16.40;68.00;;;;;;5004039;28;20049;-23
2022/11/22 09:47:49;;;;;;;0.35;0.25;;;16.40;68.10;;;;;;5006364;28;20070;-23
2022/11/22 09:50:21;;;;;;;0.30;0.20;;;16.60;67.80;;;;;;5011480;28;20121;-21
2022/11/22 09:52:54;;;;;;;0.60;0.32;;;16.70;67.50;;;;;;5012319;28;20387;-23
2022/11/22 09:55:36;;;;;;;0.50;0.30;;;16.60;67.40;;;;;;5008963;28;20038;-22
2022/11/22 09:58:11;;;;;;;0.52;0.40;;;16.60;67.30;;;;;;5020115;28;20502;-25
2022/11/22 10:00:36;;;;;;;0.52;0.20;;;16.70;68.00;;;;;;4999446;28;20037;-26
2022/11/22 10:03:25;;;;;;;0.47;0.20;;;16.70;67.10;;;;;;5008471;28;20072;-22
2022/11/22 10:05:56;;;;;;;0.32;0.17;;;16.80;67.00;;;;;;5018572;28;20096;-22
2022/11/22 10:08:40;;;;;;;1.00;0.40;;;16.90;66.80;;;;;;5000263;28;20820;-22
2022/11/22 10:11:29;;;;;;;0.20;0.20;;;16.80;66.70;;;;;;5017599;28;20042;-22
2022/11/22 10:14:04;;;;;;;0.30;0.20;;;16.80;66.80;;;;;;5015270;28;20046;-23
2022/11/22 10:16:37;;;;;;;0.15;0.10;;;16.80;66.90;;;;;;4998260;28;20128;-22
2022/11/22 10:19:07;;;;;;;0.30;0.30;;;16.70;67.70;;;;;;5017392;28;20195;-23
2022/11/22 10:21:33;;;;;;;0.28;0.20;;;16.80;66.60;;;;;;4998697;28;20049;-22
2022/11/22 10:23:58;;;;;;;0.63;0.30;;;16.80;66.90;;;;;;5017866;28;20460;-23
2022/11/22 10:26:31;;;;;;;0.47;0.47;;;16.90;66.60;;;;;;4999619;28;20046;-29
2022/11/22 10:29:33;;;;;;;0.20;0.20;;;16.90;66.50;;;;;;5015213;28;21236;-22
2022/11/22 10:32:30;;;;;;;0.10;0.10;;;16.90;66.50;;;;;;4996439;28;20064;-22
2022/11/22 10:35:27;;;;;;;0.30;0.20;;;16.80;66.70;;;;;;4992166;28;20458;-21
2022/11/22 10:37:59;;;;;;;0.43;0.22;;;16.90;66.50;;;;;;4958740;28;20043;-22
2022/11/22 10:40:35;;;;;;;0.50;0.20;;;16.90;66.50;;;;;;4939369;28;20047;-22
2022/11/22 10:43:19;;;;;;;0.35;0.20;;;16.90;66.60;;;;;;4954985;28;20053;-24
2022/11/22 10:45:51;;;;;;;0.32;0.22;;;16.90;66.70;;;;;;4956820;28;20630;-22
2022/11/22 10:48:33;;;;;;;0.43;0.20;;;16.90;66.40;;;;;;4954210;28;20055;-25
2022/11/22 10:51:12;;;;;;;0.28;0.10;;;16.90;66.40;;;;;;4957590;28;20050;-22
2022/11/22 10:54:18;;;;;;;0.35;0.30;;;16.90;66.50;;;;;;4970742;28;20054;-24
2022/11/22 10:57:34;;;;;;;0.30;0.20;;;17.00;66.20;;;;;;4948361;28;20082;-23
2022/11/22 11:00:16;;;;;;;0.40;0.40;;;16.90;66.30;;;;;;4930465;28;20036;-22
2022/11/22 11:03:12;;;;;;;0.30;0.20;;;16.90;66.50;;;;;;4947793;28;20627;-22
2022/11/22 11:05:38;;;;;;;0.50;0.20;;;16.90;66.90;;;;;;4951251;28;20050;-27
2022/11/22 11:08:04;;;;;;;0.17;0.15;;;16.80;66.70;;;;;;4961266;28;20042;-21
2022/11/22 11:10:33;;;;;;;0.40;0.30;;;16.90;66.70;;;;;;4942770;28;20396;-21
2022/11/22 11:13:06;;;;;;;0.38;0.20;;;17.00;66.40;;;;;;4946376;28;20027;-24
2022/11/22 11:15:41;;;;;;;0.45;0.20;;;16.90;66.50;;;;;;5001667;28;20061;-32
2022/11/22 11:18:16;;;;;;;0.45;0.30;;;17.00;66.40;;;;;;5015597;28;20049;-23
2022/11/22 11:20:42;;;;;;;0.25;0.20;;;17.00;66.30;;;;;;5013238;28;20080;-23
2022/11/22 11:23:10;;;;;;;1.65;0.25;;;17.00;66.30;;;;;;5031638;28;20068;-23
2022/11/22 11:25:42;;;;;;;0.30;0.20;;;17.00;66.30;;;;;;5030492;28;20091;-28
2022/11/22 11:28:29;;;;;;;0.15;0.15;;;17.00;66.20;;;;;;5035015;28;20131;-22
2022/11/22 11:31:06;;;;;;;0.45;0.22;;;17.00;66.20;;;;;;5022861;28;20042;-22
2022/11/22 11:33:34;;;;;;;0.30;0.20;;;17.10;66.00;;;;;;4999847;28;20041;-24
2022/11/22 11:36:08;;;;;;;0.28;0.10;;;17.10;66.10;;;;;;5003349;28;20128;-23
2022/11/22 11:38:37;;;;;;;0.20;0.20;;;17.00;66.00;;;;;;5011829;28;20041;-23
2022/11/22 11:41:23;;;;;;;1.48;0.30;;;17.10;66.20;;;;;;4997807;28;20055;-23
2022/11/22 11:43:52;;;;;;;0.15;0.10;;;17.10;66.10;;;;;;4996853;28;20135;-24
2022/11/22 11:46:21;;;;;;;0.40;0.25;;;17.10;66.00;;;;;;4997510;28;20050;-24
2022/11/22 11:48:48;;;;;;;0.30;0.30;;;17.10;66.00;;;;;;5002704;28;20042;-23
2022/11/22 11:51:22;;;;;;;0.28;0.20;;;17.10;66.90;;;;;;5012314;28;20073;-22
2022/11/22 11:54:01;;;;;;;0.43;0.40;;;17.10;66.00;;;;;;5015023;28;20038;-22
2022/11/22 11:56:30;;;;;;;0.73;0.20;;;17.10;66.00;;;;;;4996880;28;20108;-24
2022/11/22 11:58:56;;;;;;;0.40;0.20;;;17.10;66.10;;;;;;5006851;28;20710;-24
2022/11/22 12:01:22;;;;;;;0.28;0.20;;;17.10;66.10;;;;;;5004907;28;20384;-23
2022/11/22 12:03:56;;;;;;;0.30;0.20;;;17.10;66.00;;;;;;4992528;28;20097;-24
2022/11/22 12:06:26;;;;;;;0.85;0.30;;;17.10;65.90;;;;;;5010971;28;20053;-23
2022/11/22 12:08:52;;;;;;;0.38;0.10;;;17.10;66.10;;;;;;5024335;28;20136;-23
2022/11/22 12:11:22;;;;;;;0.32;0.20;;;17.10;66.90;;;;;;5012212;28;20056;-24
2022/11/22 12:13:53;;;;;;;0.38;0.20;;;17.10;66.10;;;;;;5003227;28;20116;-22
2022/11/22 12:16:31;;;;;;;0.60;0.40;;;17.10;65.90;;;;;;5000013;28;20066;-22
2022/11/22 12:19:25;;;;;;;0.30;0.20;;;17.10;66.10;;;;;;4995030;28;20463;-22
2022/11/22 12:22:02;;;;;;;0.68;0.40;;;17.10;66.10;;;;;;4994115;28;20125;-23
2022/11/22 12:24:38;;;;;;;0.35;0.10;;;17.10;66.00;;;;;;4992643;28;20060;-26
2022/11/22 12:27:03;;;;;;;0.85;0.30;;;17.10;66.00;;;;;;5020659;28;20056;-26
2022/11/22 12:29:31;;;;;;;0.60;0.35;;;17.10;66.10;;;;;;5013132;28;20021;-22
2022/11/22 12:32:18;;;;;;;0.30;0.20;;;17.10;66.10;;;;;;5011877;28;20065;-22
2022/11/22 12:34:52;;;;;;;0.20;0.15;;;17.00;66.10;;;;;;5008322;28;20030;-28
2022/11/22 12:37:22;;;;;;;0.50;0.20;;;17.10;66.10;;;;;;5006386;28;20042;-22
2022/11/22 12:39:49;;;;;;;0.20;0.20;;;17.00;66.40;;;;;;5007637;28;20121;-21
2022/11/22 12:42:30;;;;;;;0.45;0.40;;;17.00;66.50;;;;;;5006282;28;20517;-24
2022/11/22 12:45:00;;;;;;;0.55;0.32;;;17.00;67.30;;;;;;5013105;28;20053;-22
2022/11/22 12:47:30;;;;;;;0.45;0.20;;;17.00;66.80;;;;;;5012164;28;20042;-16
2022/11/22 12:50:16;;;;;;;0.77;0.20;;;17.00;66.80;;;;;;5002116;28;20053;-16
2022/11/22 12:53:02;;;;;;;0.73;0.32;;;17.00;67.00;;;;;;5006595;28;20053;-16
2022/11/22 12:55:30;;;;;;;0.45;0.30;;;17.10;66.70;;;;;;4988694;28;20043;-16
2022/11/22 12:58:02;;;;;;;0.68;0.30;;;17.10;66.60;;;;;;5000962;28;20081;-17
2022/11/22 13:00:29;;;;;;;0.73;0.30;;;17.10;66.90;;;;;;4991577;28;20070;-21
2022/11/22 13:03:02;;;;;;;0.60;0.40;;;17.10;66.90;;;;;;4990091;28;20507;-16
2022/11/22 13:05:39;;;;;;;0.50;0.30;;;17.10;67.10;;;;;;5001095;28;20469;-16
2022/11/22 13:08:15;;;;;;;1.05;0.30;;;17.00;67.20;;;;;;4994113;28;20034;-16